sensor_id;sensor_type;location;lat;lon;timestamp;temperature;humidity
38359;DHT22;42072;48.044;14.416;2023-01-01T00:00:47;3.30;1.00
38359;DHT22;42072;48.044;14.416;2023-01-01T00:03:14;3.30;1.00
38359;DHT22;42072;48.044;14.416;2023-01-01T00:05:42;3.30;1.00
38359;DHT22;42072;48.044;14.416;2023-01-01T00:08:09;3.30;1.00
38359;DHT22;42072;48.044;14.416;2023-01-01T00:10:36;3.30;1.00
38359;DHT22;42072;48.044;14.416;2023-01-01T00:13:04;3.30;1.00
38359;DHT22;42072;48.044;14.416;2023-01-01T00:15:31;3.30;1.00
38359;DHT22;42072;48.044;14.416;2023-01-01T00:17:59;3.40;1.00
38359;DHT22;42072;48.044;14.416;2023-01-01T00:20:26;3.40;1.00
38359;DHT22;42072;48.044;14.416;2023-01-01T00:23:01;3.40;1.00
38359;DHT22;42072;48.044;14.416;2023-01-01T00:25:28;3.30;1.00
38359;DHT22;42072;48.044;14.416;2023-01-01T00:27:56;3.20;1.00
38359;DHT22;42072;48.044;14.416;2023-01-01T00:30:23;3.10;1.00
38359;DHT22;42072;48.044;14.416;2023-01-01T00:32:51;3.10;1.00
38359;DHT22;42072;48.044;14.416;2023-01-01T00:35:23;2.90;1.00
38359;DHT22;42072;48.044;14.416;2023-01-01T00:37:50;2.90;1.00
38359;DHT22;42072;48.044;14.416;2023-01-01T00:40:18;2.90;1.00
38359;DHT22;42072;48.044;14.416;2023-01-01T00:42:45;2.90;1.00
38359;DHT22;42072;48.044;14.416;2023-01-01T00:45:12;2.90;1.00
38359;DHT22;42072;48.044;14.416;2023-01-01T00:47:47;2.90;1.00
38359;DHT22;42072;48.044;14.416;2023-01-01T00:50:15;2.90;1.00
38359;DHT22;42072;48.044;14.416;2023-01-01T00:52:42;2.80;1.00
38359;DHT22;42072;48.044;14.416;2023-01-01T00:55:10;2.80;1.00
38359;DHT22;42072;48.044;14.416;2023-01-01T00:57:37;2.80;1.00
38359;DHT22;42072;48.044;14.416;2023-01-01T01:00:06;2.80;1.00
38359;DHT22;42072;48.044;14.416;2023-01-01T01:02:34;2.80;1.00
38359;DHT22;42072;48.044;14.416;2023-01-01T01:05:02;2.80;1.00
38359;DHT22;42072;48.044;14.416;2023-01-01T01:07:37;2.80;1.00
38359;DHT22;42072;48.044;14.416;2023-01-01T01:10:05;2.90;1.00
38359;DHT22;42072;48.044;14.416;2023-01-01T01:12:34;2.90;1.00
38359;DHT22;42072;48.044;14.416;2023-01-01T01:15:02;2.90;1.00
38359;DHT22;42072;48.044;14.416;2023-01-01T01:17:30;2.90;1.00
38359;DHT22;42072;48.044;14.416;2023-01-01T01:19:57;2.90;1.00
38359;DHT22;42072;48.044;14.416;2023-01-01T01:22:25;2.90;1.00
38359;DHT22;42072;48.044;14.416;2023-01-01T01:24:55;2.90;1.00
38359;DHT22;42072;48.044;14.416;2023-01-01T01:27:22;2.90;1.00
38359;DHT22;42072;48.044;14.416;2023-01-01T01:29:50;2.90;1.00
38359;DHT22;42072;48.044;14.416;2023-01-01T01:32:17;2.80;1.00
38359;DHT22;42072;48.044;14.416;2023-01-01T01:34:45;2.80;1.00
38359;DHT22;42072;48.044;14.416;2023-01-01T01:37:12;2.80;1.00
38359;DHT22;42072;48.044;14.416;2023-01-01T01:39:40;2.80;1.00
38359;DHT22;42072;48.044;14.416;2023-01-01T01:42:10;2.80;1.00
38359;DHT22;42072;48.044;14.416;2023-01-01T01:47:28;2.80;1.00
38359;DHT22;42072;48.044;14.416;2023-01-01T01:50:36;2.80;1.00
38359;DHT22;42072;48.044;14.416;2023-01-01T01:53:18;2.80;1.00
38359;DHT22;42072;48.044;14.416;2023-01-01T01:55:53;2.80;1.00
38359;DHT22;42072;48.044;14.416;2023-01-01T01:58:23;2.80;1.00
38359;DHT22;42072;48.044;14.416;2023-01-01T02:00:51;2.70;1.00
38359;DHT22;42072;48.044;14.416;2023-01-01T02:03:33;2.60;1.00
38359;DHT22;42072;48.044;14.416;2023-01-01T02:06:03;2.50;1.00
38359;DHT22;42072;48.044;14.416;2023-01-01T02:08:32;2.40;1.00
38359;DHT22;42072;48.044;14.416;2023-01-01T02:11:01;2.30;1.00
38359;DHT22;42072;48.044;14.416;2023-01-01T02:13:29;2.30;1.00
38359;DHT22;42072;48.044;14.416;2023-01-01T02:16:11;2.30;1.00
38359;DHT22;42072;48.044;14.416;2023-01-01T02:21:26;2.50;1.00
38359;DHT22;42072;48.044;14.416;2023-01-01T02:24:10;2.60;1.00
38359;DHT22;42072;48.044;14.416;2023-01-01T02:29:29;2.70;1.00
38359;DHT22;42072;48.044;14.416;2023-01-01T02:32:11;2.60;1.00
38359;DHT22;42072;48.044;14.416;2023-01-01T02:34:46;2.50;1.00
38359;DHT22;42072;48.044;14.416;2023-01-01T02:37:16;2.50;1.00
38359;DHT22;42072;48.044;14.416;2023-01-01T02:39:53;2.40;1.00
38359;DHT22;42072;48.044;14.416;2023-01-01T02:42:25;2.40;1.00
38359;DHT22;42072;48.044;14.416;2023-01-01T02:44:55;2.40;1.00
38359;DHT22;42072;48.044;14.416;2023-01-01T02:47:24;2.30;1.00
38359;DHT22;42072;48.044;14.416;2023-01-01T02:50:07;2.20;1.00
38359;DHT22;42072;48.044;14.416;2023-01-01T02:52:55;2.10;1.00
38359;DHT22;42072;48.044;14.416;2023-01-01T02:55:59;2.00;1.00
38359;DHT22;42072;48.044;14.416;2023-01-01T02:58:41;2.00;1.00
38359;DHT22;42072;48.044;14.416;2023-01-01T03:01:33;2.00;1.00
38359;DHT22;42072;48.044;14.416;2023-01-01T03:04:24;2.00;1.00
38359;DHT22;42072;48.044;14.416;2023-01-01T03:09:33;2.10;1.00
38359;DHT22;42072;48.044;14.416;2023-01-01T03:12:31;2.20;1.00
38359;DHT22;42072;48.044;14.416;2023-01-01T03:20:43;2.20;1.00
38359;DHT22;42072;48.044;14.416;2023-01-01T03:23:15;2.20;1.00
38359;DHT22;42072;48.044;14.416;2023-01-01T03:25:53;2.20;1.00
38359;DHT22;42072;48.044;14.416;2023-01-01T03:28:31;2.20;1.00
38359;DHT22;42072;48.044;14.416;2023-01-01T03:31:01;2.20;1.00
38359;DHT22;42072;48.044;14.416;2023-01-01T03:33:34;2.30;1.00
38359;DHT22;42072;48.044;14.416;2023-01-01T03:38:46;2.50;1.00
38359;DHT22;42072;48.044;14.416;2023-01-01T03:44:37;2.70;1.00
38359;DHT22;42072;48.044;14.416;2023-01-01T03:47:07;2.70;1.00
38359;DHT22;42072;48.044;14.416;2023-01-01T03:49:35;2.70;1.00
38359;DHT22;42072;48.044;14.416;2023-01-01T04:00:31;2.50;1.00
38359;DHT22;42072;48.044;14.416;2023-01-01T04:03:01;2.50;1.00
38359;DHT22;42072;48.044;14.416;2023-01-01T04:05:34;2.40;1.00
38359;DHT22;42072;48.044;14.416;2023-01-01T04:08:02;2.40;1.00
38359;DHT22;42072;48.044;14.416;2023-01-01T04:10:32;2.40;1.00
38359;DHT22;42072;48.044;14.416;2023-01-01T04:13:03;2.50;1.00
38359;DHT22;42072;48.044;14.416;2023-01-01T04:15:32;2.50;1.00
38359;DHT22;42072;48.044;14.416;2023-01-01T04:17:59;2.60;1.00
38359;DHT22;42072;48.044;14.416;2023-01-01T04:20:27;2.60;1.00
38359;DHT22;42072;48.044;14.416;2023-01-01T04:23:01;2.60;1.00
38359;DHT22;42072;48.044;14.416;2023-01-01T04:25:28;2.70;1.00
38359;DHT22;42072;48.044;14.416;2023-01-01T04:27:56;2.70;1.00
38359;DHT22;42072;48.044;14.416;2023-01-01T04:30:29;2.80;1.00
38359;DHT22;42072;48.044;14.416;2023-01-01T04:32:57;3.00;1.00
38359;DHT22;42072;48.044;14.416;2023-01-01T04:35:24;3.20;1.00
38359;DHT22;42072;48.044;14.416;2023-01-01T04:37:51;3.20;1.00
38359;DHT22;42072;48.044;14.416;2023-01-01T04:40:18;3.20;1.00
38359;DHT22;42072;48.044;14.416;2023-01-01T04:42:45;3.10;1.00
38359;DHT22;42072;48.044;14.416;2023-01-01T04:45:13;3.00;1.00
38359;DHT22;42072;48.044;14.416;2023-01-01T04:47:41;3.00;1.00
38359;DHT22;42072;48.044;14.416;2023-01-01T04:50:09;3.00;1.00
38359;DHT22;42072;48.044;14.416;2023-01-01T04:52:36;2.80;1.00
38359;DHT22;42072;48.044;14.416;2023-01-01T04:55:04;2.70;1.00
38359;DHT22;42072;48.044;14.416;2023-01-01T04:57:31;2.60;1.00
38359;DHT22;42072;48.044;14.416;2023-01-01T04:59:58;2.50;1.00
38359;DHT22;42072;48.044;14.416;2023-01-01T05:02:26;2.50;1.00
38359;DHT22;42072;48.044;14.416;2023-01-01T05:04:53;2.40;1.00
38359;DHT22;42072;48.044;14.416;2023-01-01T05:07:20;2.40;1.00
38359;DHT22;42072;48.044;14.416;2023-01-01T05:09:47;2.40;1.00
38359;DHT22;42072;48.044;14.416;2023-01-01T05:12:15;2.40;1.00
38359;DHT22;42072;48.044;14.416;2023-01-01T05:14:42;2.50;1.00
38359;DHT22;42072;48.044;14.416;2023-01-01T05:17:09;2.50;1.00
38359;DHT22;42072;48.044;14.416;2023-01-01T05:19:36;2.40;1.00
38359;DHT22;42072;48.044;14.416;2023-01-01T05:22:03;2.40;1.00
38359;DHT22;42072;48.044;14.416;2023-01-01T05:24:36;2.30;1.00
38359;DHT22;42072;48.044;14.416;2023-01-01T05:27:03;2.30;1.00
38359;DHT22;42072;48.044;14.416;2023-01-01T05:29:31;2.20;1.00
38359;DHT22;42072;48.044;14.416;2023-01-01T05:31:58;2.20;1.00
38359;DHT22;42072;48.044;14.416;2023-01-01T05:34:26;2.20;1.00
38359;DHT22;42072;48.044;14.416;2023-01-01T05:36:53;2.20;1.00
38359;DHT22;42072;48.044;14.416;2023-01-01T05:39:20;2.20;1.00
38359;DHT22;42072;48.044;14.416;2023-01-01T05:41:48;2.20;1.00
38359;DHT22;42072;48.044;14.416;2023-01-01T05:44:15;2.20;1.00
38359;DHT22;42072;48.044;14.416;2023-01-01T05:46:45;2.20;1.00
38359;DHT22;42072;48.044;14.416;2023-01-01T05:49:12;2.30;1.00
38359;DHT22;42072;48.044;14.416;2023-01-01T05:51:39;2.30;1.00
38359;DHT22;42072;48.044;14.416;2023-01-01T05:54:10;2.30;1.00
38359;DHT22;42072;48.044;14.416;2023-01-01T05:56:46;2.30;1.00
38359;DHT22;42072;48.044;14.416;2023-01-01T05:59:13;2.30;1.00
38359;DHT22;42072;48.044;14.416;2023-01-01T06:01:40;2.30;1.00
38359;DHT22;42072;48.044;14.416;2023-01-01T06:04:12;2.30;1.00
38359;DHT22;42072;48.044;14.416;2023-01-01T06:06:39;2.30;1.00
38359;DHT22;42072;48.044;14.416;2023-01-01T06:09:06;2.20;1.00
38359;DHT22;42072;48.044;14.416;2023-01-01T06:11:33;2.20;1.00
38359;DHT22;42072;48.044;14.416;2023-01-01T06:14:01;2.20;1.00
38359;DHT22;42072;48.044;14.416;2023-01-01T06:16:29;2.10;1.00
38359;DHT22;42072;48.044;14.416;2023-01-01T06:18:57;2.10;1.00
38359;DHT22;42072;48.044;14.416;2023-01-01T06:21:26;2.10;1.00
38359;DHT22;42072;48.044;14.416;2023-01-01T06:23:55;2.10;1.00
38359;DHT22;42072;48.044;14.416;2023-01-01T06:26:25;2.00;1.00
38359;DHT22;42072;48.044;14.416;2023-01-01T06:28:54;1.90;1.00
38359;DHT22;42072;48.044;14.416;2023-01-01T06:31:22;1.80;1.00
38359;DHT22;42072;48.044;14.416;2023-01-01T06:33:50;1.80;1.00
38359;DHT22;42072;48.044;14.416;2023-01-01T06:36:19;1.70;1.00
38359;DHT22;42072;48.044;14.416;2023-01-01T06:38:50;1.70;1.00
38359;DHT22;42072;48.044;14.416;2023-01-01T06:41:23;1.70;1.00
38359;DHT22;42072;48.044;14.416;2023-01-01T06:43:51;1.70;1.00
38359;DHT22;42072;48.044;14.416;2023-01-01T06:48:53;1.70;1.00
38359;DHT22;42072;48.044;14.416;2023-01-01T06:51:23;1.80;1.00
38359;DHT22;42072;48.044;14.416;2023-01-01T06:53:51;1.90;1.00
38359;DHT22;42072;48.044;14.416;2023-01-01T06:56:19;2.00;1.00
38359;DHT22;42072;48.044;14.416;2023-01-01T06:58:46;2.10;1.00
38359;DHT22;42072;48.044;14.416;2023-01-01T07:01:17;2.10;1.00
38359;DHT22;42072;48.044;14.416;2023-01-01T07:03:59;2.00;1.00
38359;DHT22;42072;48.044;14.416;2023-01-01T07:06:28;2.10;1.00
38359;DHT22;42072;48.044;14.416;2023-01-01T07:08:56;2.10;1.00
38359;DHT22;42072;48.044;14.416;2023-01-01T07:11:23;2.10;1.00
38359;DHT22;42072;48.044;14.416;2023-01-01T07:13:51;2.00;1.00
38359;DHT22;42072;48.044;14.416;2023-01-01T07:16:19;1.90;1.00
38359;DHT22;42072;48.044;14.416;2023-01-01T07:18:46;1.90;99.90
38359;DHT22;42072;48.044;14.416;2023-01-01T07:21:42;1.90;99.90
38359;DHT22;42072;48.044;14.416;2023-01-01T07:24:14;1.90;99.90
38359;DHT22;42072;48.044;14.416;2023-01-01T07:26:42;2.00;99.90
38359;DHT22;42072;48.044;14.416;2023-01-01T07:29:09;2.00;99.90
38359;DHT22;42072;48.044;14.416;2023-01-01T07:31:38;2.00;99.90
38359;DHT22;42072;48.044;14.416;2023-01-01T07:34:08;2.10;99.90
38359;DHT22;42072;48.044;14.416;2023-01-01T07:36:37;2.20;99.90
38359;DHT22;42072;48.044;14.416;2023-01-01T07:39:04;2.30;99.90
38359;DHT22;42072;48.044;14.416;2023-01-01T07:41:31;2.30;99.90
38359;DHT22;42072;48.044;14.416;2023-01-01T07:43:58;2.40;99.90
38359;DHT22;42072;48.044;14.416;2023-01-01T07:46:26;2.50;99.90
38359;DHT22;42072;48.044;14.416;2023-01-01T07:48:53;2.60;99.90
38359;DHT22;42072;48.044;14.416;2023-01-01T07:51:20;2.70;99.90
38359;DHT22;42072;48.044;14.416;2023-01-01T07:53:47;2.90;99.90
38359;DHT22;42072;48.044;14.416;2023-01-01T07:56:15;3.00;99.90
38359;DHT22;42072;48.044;14.416;2023-01-01T07:58:42;3.20;99.90
38359;DHT22;42072;48.044;14.416;2023-01-01T08:01:11;3.40;99.90
38359;DHT22;42072;48.044;14.416;2023-01-01T08:03:39;3.60;99.90
38359;DHT22;42072;48.044;14.416;2023-01-01T08:06:11;3.70;99.90
38359;DHT22;42072;48.044;14.416;2023-01-01T08:08:39;3.80;99.90
38359;DHT22;42072;48.044;14.416;2023-01-01T08:11:07;3.80;99.90
38359;DHT22;42072;48.044;14.416;2023-01-01T08:13:34;3.90;99.90
38359;DHT22;42072;48.044;14.416;2023-01-01T08:16:01;3.90;99.90
38359;DHT22;42072;48.044;14.416;2023-01-01T08:18:29;4.00;99.90
38359;DHT22;42072;48.044;14.416;2023-01-01T08:20:56;4.20;99.90
38359;DHT22;42072;48.044;14.416;2023-01-01T08:23:23;4.20;99.90
38359;DHT22;42072;48.044;14.416;2023-01-01T08:25:50;4.30;99.90
38359;DHT22;42072;48.044;14.416;2023-01-01T08:28:18;4.40;99.90
38359;DHT22;42072;48.044;14.416;2023-01-01T08:30:45;4.40;99.90
38359;DHT22;42072;48.044;14.416;2023-01-01T08:33:12;4.40;99.90
38359;DHT22;42072;48.044;14.416;2023-01-01T08:35:41;4.50;99.90
38359;DHT22;42072;48.044;14.416;2023-01-01T08:38:12;4.50;99.90
38359;DHT22;42072;48.044;14.416;2023-01-01T08:40:39;4.50;99.90
38359;DHT22;42072;48.044;14.416;2023-01-01T08:43:07;4.40;99.90
38359;DHT22;42072;48.044;14.416;2023-01-01T08:45:34;4.40;99.90
38359;DHT22;42072;48.044;14.416;2023-01-01T08:48:01;4.40;99.90
38359;DHT22;42072;48.044;14.416;2023-01-01T08:50:28;4.50;99.90
38359;DHT22;42072;48.044;14.416;2023-01-01T08:52:57;4.60;99.90
38359;DHT22;42072;48.044;14.416;2023-01-01T08:55:25;4.70;99.90
38359;DHT22;42072;48.044;14.416;2023-01-01T08:57:52;4.80;99.90
38359;DHT22;42072;48.044;14.416;2023-01-01T09:00:20;4.80;99.90
38359;DHT22;42072;48.044;14.416;2023-01-01T09:02:47;4.90;99.90
38359;DHT22;42072;48.044;14.416;2023-01-01T09:05:14;4.90;99.90
38359;DHT22;42072;48.044;14.416;2023-01-01T09:07:41;5.00;99.90
38359;DHT22;42072;48.044;14.416;2023-01-01T09:10:09;5.10;99.90
38359;DHT22;42072;48.044;14.416;2023-01-01T09:12:36;5.10;99.90
38359;DHT22;42072;48.044;14.416;2023-01-01T09:15:03;5.20;99.90
38359;DHT22;42072;48.044;14.416;2023-01-01T09:17:31;5.30;99.90
38359;DHT22;42072;48.044;14.416;2023-01-01T09:19:58;5.40;99.90
38359;DHT22;42072;48.044;14.416;2023-01-01T09:22:25;5.40;99.90
38359;DHT22;42072;48.044;14.416;2023-01-01T09:24:52;5.50;99.90
38359;DHT22;42072;48.044;14.416;2023-01-01T09:27:19;5.50;99.90
38359;DHT22;42072;48.044;14.416;2023-01-01T09:29:46;5.80;99.90
38359;DHT22;42072;48.044;14.416;2023-01-01T09:32:14;5.80;99.90
38359;DHT22;42072;48.044;14.416;2023-01-01T09:34:41;5.90;99.90
38359;DHT22;42072;48.044;14.416;2023-01-01T09:37:16;6.10;99.90
38359;DHT22;42072;48.044;14.416;2023-01-01T09:39:43;6.10;99.90
38359;DHT22;42072;48.044;14.416;2023-01-01T09:48:05;6.50;99.90
38359;DHT22;42072;48.044;14.416;2023-01-01T09:50:40;6.50;99.90
38359;DHT22;42072;48.044;14.416;2023-01-01T09:53:30;6.60;1.00
38359;DHT22;42072;48.044;14.416;2023-01-01T09:56:00;6.70;1.00
38359;DHT22;42072;48.044;14.416;2023-01-01T09:58:33;6.70;1.00
38359;DHT22;42072;48.044;14.416;2023-01-01T10:15:16;7.40;1.00
38359;DHT22;42072;48.044;14.416;2023-01-01T10:17:48;7.60;1.00
38359;DHT22;42072;48.044;14.416;2023-01-01T10:20:24;7.70;1.00
38359;DHT22;42072;48.044;14.416;2023-01-01T10:23:00;7.80;1.00
38359;DHT22;42072;48.044;14.416;2023-01-01T10:25:30;7.90;1.00
38359;DHT22;42072;48.044;14.416;2023-01-01T10:28:05;8.00;1.00
38359;DHT22;42072;48.044;14.416;2023-01-01T10:30:33;8.10;1.00
38359;DHT22;42072;48.044;14.416;2023-01-01T10:33:00;8.20;1.00
38359;DHT22;42072;48.044;14.416;2023-01-01T10:35:34;8.30;1.00
38359;DHT22;42072;48.044;14.416;2023-01-01T10:38:03;8.40;1.00
38359;DHT22;42072;48.044;14.416;2023-01-01T10:40:32;8.60;1.00
38359;DHT22;42072;48.044;14.416;2023-01-01T10:43:00;8.70;1.00
38359;DHT22;42072;48.044;14.416;2023-01-01T10:45:32;8.90;1.00
38359;DHT22;42072;48.044;14.416;2023-01-01T10:53:49;9.30;1.00
38359;DHT22;42072;48.044;14.416;2023-01-01T10:56:18;9.50;99.90
38359;DHT22;42072;48.044;14.416;2023-01-01T10:58:54;9.60;99.90
38359;DHT22;42072;48.044;14.416;2023-01-01T11:01:32;9.80;99.90
38359;DHT22;42072;48.044;14.416;2023-01-01T11:04:19;9.90;99.90
38359;DHT22;42072;48.044;14.416;2023-01-01T11:06:47;10.10;99.90
38359;DHT22;42072;48.044;14.416;2023-01-01T11:09:24;10.30;99.90
38359;DHT22;42072;48.044;14.416;2023-01-01T11:12:01;10.30;99.90
38359;DHT22;42072;48.044;14.416;2023-01-01T11:14:41;10.30;99.90
38359;DHT22;42072;48.044;14.416;2023-01-01T11:17:09;10.40;99.90
38359;DHT22;42072;48.044;14.416;2023-01-01T11:19:39;10.50;99.90
38359;DHT22;42072;48.044;14.416;2023-01-01T11:25:03;10.70;99.90
38359;DHT22;42072;48.044;14.416;2023-01-01T11:27:30;10.70;99.90
38359;DHT22;42072;48.044;14.416;2023-01-01T11:32:51;10.70;99.90
38359;DHT22;42072;48.044;14.416;2023-01-01T11:35:23;10.80;99.90
38359;DHT22;42072;48.044;14.416;2023-01-01T11:37:53;10.80;99.90
38359;DHT22;42072;48.044;14.416;2023-01-01T11:40:34;10.80;99.90
38359;DHT22;42072;48.044;14.416;2023-01-01T11:43:03;10.80;99.90
38359;DHT22;42072;48.044;14.416;2023-01-01T11:45:38;10.80;99.90
38359;DHT22;42072;48.044;14.416;2023-01-01T11:48:24;10.80;99.90
38359;DHT22;42072;48.044;14.416;2023-01-01T11:50:55;10.80;99.90
38359;DHT22;42072;48.044;14.416;2023-01-01T11:56:07;10.80;99.90
38359;DHT22;42072;48.044;14.416;2023-01-01T12:07:14;11.00;99.90
38359;DHT22;42072;48.044;14.416;2023-01-01T12:10:20;11.10;99.90
38359;DHT22;42072;48.044;14.416;2023-01-01T12:13:00;11.10;99.90
38359;DHT22;42072;48.044;14.416;2023-01-01T12:18:20;11.10;99.90
38359;DHT22;42072;48.044;14.416;2023-01-01T12:20:51;11.10;99.90
38359;DHT22;42072;48.044;14.416;2023-01-01T12:23:22;11.20;99.90
38359;DHT22;42072;48.044;14.416;2023-01-01T12:28:29;11.20;99.90
38359;DHT22;42072;48.044;14.416;2023-01-01T12:36:20;11.40;99.90
38359;DHT22;42072;48.044;14.416;2023-01-01T12:39:34;11.40;99.90
38359;DHT22;42072;48.044;14.416;2023-01-01T12:42:42;11.50;99.90
38359;DHT22;42072;48.044;14.416;2023-01-01T12:48:13;11.60;99.90
38359;DHT22;42072;48.044;14.416;2023-01-01T12:59:44;11.90;99.90
38359;DHT22;42072;48.044;14.416;2023-01-01T13:02:22;11.80;99.90
38359;DHT22;42072;48.044;14.416;2023-01-01T13:04:54;11.80;99.90
38359;DHT22;42072;48.044;14.416;2023-01-01T13:07:30;11.90;99.90
38359;DHT22;42072;48.044;14.416;2023-01-01T13:10:09;11.90;99.90
38359;DHT22;42072;48.044;14.416;2023-01-01T13:12:39;11.90;99.90
38359;DHT22;42072;48.044;14.416;2023-01-01T13:18:06;12.00;99.90
38359;DHT22;42072;48.044;14.416;2023-01-01T13:20:38;12.00;99.90
38359;DHT22;42072;48.044;14.416;2023-01-01T13:42:46;12.90;99.90
38359;DHT22;42072;48.044;14.416;2023-01-01T13:45:43;12.90;99.90
38359;DHT22;42072;48.044;14.416;2023-01-01T13:53:17;12.80;99.90
38359;DHT22;42072;48.044;14.416;2023-01-01T13:55:31;12.90;99.90
38359;DHT22;42072;48.044;14.416;2023-01-01T13:58:13;12.90;99.90
38359;DHT22;42072;48.044;14.416;2023-01-01T14:00:53;12.80;99.90
38359;DHT22;42072;48.044;14.416;2023-01-01T14:03:25;12.60;99.90
38359;DHT22;42072;48.044;14.416;2023-01-01T14:05:57;12.50;99.90
38359;DHT22;42072;48.044;14.416;2023-01-01T14:08:31;12.40;99.90
38359;DHT22;42072;48.044;14.416;2023-01-01T14:11:00;12.30;99.90
38359;DHT22;42072;48.044;14.416;2023-01-01T14:13:29;12.20;99.90
38359;DHT22;42072;48.044;14.416;2023-01-01T14:16:03;12.00;99.90
38359;DHT22;42072;48.044;14.416;2023-01-01T14:21:19;12.10;99.90
38359;DHT22;42072;48.044;14.416;2023-01-01T14:23:59;11.90;99.90
38359;DHT22;42072;48.044;14.416;2023-01-01T14:26:29;11.90;99.90
38359;DHT22;42072;48.044;14.416;2023-01-01T14:28:58;11.80;99.90
38359;DHT22;42072;48.044;14.416;2023-01-01T14:31:33;11.70;99.90
38359;DHT22;42072;48.044;14.416;2023-01-01T14:34:21;11.70;99.90
38359;DHT22;42072;48.044;14.416;2023-01-01T14:36:55;11.50;99.90
38359;DHT22;42072;48.044;14.416;2023-01-01T14:39:27;11.40;99.90
38359;DHT22;42072;48.044;14.416;2023-01-01T14:41:59;11.30;99.90
38359;DHT22;42072;48.044;14.416;2023-01-01T14:44:37;11.10;99.90
38359;DHT22;42072;48.044;14.416;2023-01-01T14:47:05;10.90;99.90
38359;DHT22;42072;48.044;14.416;2023-01-01T14:49:41;10.70;99.90
38359;DHT22;42072;48.044;14.416;2023-01-01T14:52:17;10.40;99.90
38359;DHT22;42072;48.044;14.416;2023-01-01T14:54:47;10.20;99.90
38359;DHT22;42072;48.044;14.416;2023-01-01T14:57:24;9.90;99.90
38359;DHT22;42072;48.044;14.416;2023-01-01T14:59:51;9.80;99.90
38359;DHT22;42072;48.044;14.416;2023-01-01T15:02:28;9.60;99.90
38359;DHT22;42072;48.044;14.416;2023-01-01T15:04:57;9.50;99.90
38359;DHT22;42072;48.044;14.416;2023-01-01T15:07:29;9.40;99.90
38359;DHT22;42072;48.044;14.416;2023-01-01T15:09:58;9.30;99.90
38359;DHT22;42072;48.044;14.416;2023-01-01T15:12:28;9.30;99.90
38359;DHT22;42072;48.044;14.416;2023-01-01T15:14:56;9.10;99.90
38359;DHT22;42072;48.044;14.416;2023-01-01T15:17:25;9.00;99.90
38359;DHT22;42072;48.044;14.416;2023-01-01T15:22:33;8.90;1.00
38359;DHT22;42072;48.044;14.416;2023-01-01T15:25:02;8.80;1.00
38359;DHT22;42072;48.044;14.416;2023-01-01T15:27:34;8.70;1.00
38359;DHT22;42072;48.044;14.416;2023-01-01T15:30:04;8.60;1.00
38359;DHT22;42072;48.044;14.416;2023-01-01T15:32:39;8.40;1.00
38359;DHT22;42072;48.044;14.416;2023-01-01T15:35:28;8.30;1.00
38359;DHT22;42072;48.044;14.416;2023-01-01T15:38:21;8.00;1.00
38359;DHT22;42072;48.044;14.416;2023-01-01T15:40:50;7.80;1.00
38359;DHT22;42072;48.044;14.416;2023-01-01T15:43:23;7.50;1.00
38359;DHT22;42072;48.044;14.416;2023-01-01T15:45:54;7.40;1.00
38359;DHT22;42072;48.044;14.416;2023-01-01T15:48:32;7.50;1.00
38359;DHT22;42072;48.044;14.416;2023-01-01T15:51:05;7.30;1.00
38359;DHT22;42072;48.044;14.416;2023-01-01T15:56:15;6.90;1.00
38359;DHT22;42072;48.044;14.416;2023-01-01T15:58:56;6.70;1.00
38359;DHT22;42072;48.044;14.416;2023-01-01T16:01:32;6.50;1.00
38359;DHT22;42072;48.044;14.416;2023-01-01T16:06:47;6.20;1.00
38359;DHT22;42072;48.044;14.416;2023-01-01T16:09:16;6.10;1.00
38359;DHT22;42072;48.044;14.416;2023-01-01T16:11:44;6.10;1.00
38359;DHT22;42072;48.044;14.416;2023-01-01T16:14:11;6.30;33.30
38359;DHT22;42072;48.044;14.416;2023-01-01T16:16:39;6.40;70.80
38359;DHT22;42072;48.044;14.416;2023-01-01T16:19:15;6.50;88.50
38359;DHT22;42072;48.044;14.416;2023-01-01T16:21:43;6.50;91.90
38359;DHT22;42072;48.044;14.416;2023-01-01T16:24:12;6.40;93.10
38359;DHT22;42072;48.044;14.416;2023-01-01T16:26:41;6.30;88.20
38359;DHT22;42072;48.044;14.416;2023-01-01T16:29:08;6.10;80.60
38359;DHT22;42072;48.044;14.416;2023-01-01T16:31:38;6.00;79.50
38359;DHT22;42072;48.044;14.416;2023-01-01T16:34:05;5.90;84.60
38359;DHT22;42072;48.044;14.416;2023-01-01T16:36:33;5.80;92.00
38359;DHT22;42072;48.044;14.416;2023-01-01T16:39:00;5.80;96.60
38359;DHT22;42072;48.044;14.416;2023-01-01T16:41:27;5.70;99.90
38359;DHT22;42072;48.044;14.416;2023-01-01T16:43:56;5.70;99.90
38359;DHT22;42072;48.044;14.416;2023-01-01T16:46:24;5.70;99.90
38359;DHT22;42072;48.044;14.416;2023-01-01T16:48:53;5.90;99.90
38359;DHT22;42072;48.044;14.416;2023-01-01T16:51:27;5.90;99.90
38359;DHT22;42072;48.044;14.416;2023-01-01T16:53:54;5.80;99.90
38359;DHT22;42072;48.044;14.416;2023-01-01T16:56:23;5.50;99.90
38359;DHT22;42072;48.044;14.416;2023-01-01T16:58:50;5.40;99.90
38359;DHT22;42072;48.044;14.416;2023-01-01T17:01:29;5.30;99.90
38359;DHT22;42072;48.044;14.416;2023-01-01T17:03:56;5.10;99.90
38359;DHT22;42072;48.044;14.416;2023-01-01T17:06:23;5.10;99.90
38359;DHT22;42072;48.044;14.416;2023-01-01T17:08:50;5.00;99.90
38359;DHT22;42072;48.044;14.416;2023-01-01T17:11:18;5.00;99.90
38359;DHT22;42072;48.044;14.416;2023-01-01T17:13:46;5.20;99.90
38359;DHT22;42072;48.044;14.416;2023-01-01T17:16:15;5.60;99.90
38359;DHT22;42072;48.044;14.416;2023-01-01T17:18:54;5.50;99.90
38359;DHT22;42072;48.044;14.416;2023-01-01T17:21:41;5.30;99.90
38359;DHT22;42072;48.044;14.416;2023-01-01T17:24:08;5.20;99.90
38359;DHT22;42072;48.044;14.416;2023-01-01T17:26:35;5.10;99.90
38359;DHT22;42072;48.044;14.416;2023-01-01T17:29:03;5.00;99.90
38359;DHT22;42072;48.044;14.416;2023-01-01T17:31:32;4.90;99.90
38359;DHT22;42072;48.044;14.416;2023-01-01T17:34:00;4.80;99.90
38359;DHT22;42072;48.044;14.416;2023-01-01T17:36:28;4.70;99.90
38359;DHT22;42072;48.044;14.416;2023-01-01T17:38:56;4.70;99.90
38359;DHT22;42072;48.044;14.416;2023-01-01T17:41:23;4.60;99.90
38359;DHT22;42072;48.044;14.416;2023-01-01T17:43:52;4.50;99.90
38359;DHT22;42072;48.044;14.416;2023-01-01T17:46:23;4.50;99.90
38359;DHT22;42072;48.044;14.416;2023-01-01T17:48:51;4.50;99.90
38359;DHT22;42072;48.044;14.416;2023-01-01T17:51:19;4.50;99.90
38359;DHT22;42072;48.044;14.416;2023-01-01T17:53:48;4.40;99.90
38359;DHT22;42072;48.044;14.416;2023-01-01T17:56:17;4.30;99.90
38359;DHT22;42072;48.044;14.416;2023-01-01T17:58:46;4.30;99.90
38359;DHT22;42072;48.044;14.416;2023-01-01T18:03:50;4.20;99.90
38359;DHT22;42072;48.044;14.416;2023-01-01T18:06:17;4.20;99.90
38359;DHT22;42072;48.044;14.416;2023-01-01T18:08:46;4.30;99.90
38359;DHT22;42072;48.044;14.416;2023-01-01T18:11:13;4.20;99.90
38359;DHT22;42072;48.044;14.416;2023-01-01T18:13:40;4.30;99.90
38359;DHT22;42072;48.044;14.416;2023-01-01T18:16:10;4.50;99.90
38359;DHT22;42072;48.044;14.416;2023-01-01T18:18:39;4.40;99.90